Time,TemperatureF,DewpointF,PressureIn,WindDirection,WindDirectionDegrees,WindSpeedMPH,WindSpeedGustMPH,Humidity,HourlyPrecipIn,Conditions,Clouds,dailyrainin,SoftwareType,DateUTC
2013-12-15 00:00:00,30.3,30.3,30.25,East,94,0.0,3.0,100,0.00,,,0.00,Wunderground v.1.15,2013-12-15 08:00:00,
2013-12-15 00:10:00,30.1,30.1,30.24,East,94,0.0,3.0,100,0.00,,,0.00,Wunderground v.1.15,2013-12-15 08:10:00,
2013-12-15 00:20:00,29.8,29.8,30.24,East,94,0.0,3.0,100,0.00,,,0.00,Wunderground v.1.15,2013-12-15 08:20:00,
2013-12-15 00:30:00,29.7,29.7,30.24,East,94,0.0,3.0,100,0.00,,,0.00,Wunderground v.1.15,2013-12-15 08:30:00,
2013-12-15 00:40:00,29.5,29.5,30.23,East,94,0.0,3.0,100,0.00,,,0.00,Wunderground v.1.15,2013-12-15 08:40:00,
2013-12-15 00:50:00,29.7,29.7,30.23,East,94,0.0,3.0,100,0.00,,,0.00,Wunderground v.1.15,2013-12-15 08:50:00,
2013-12-15 01:00:00,29.7,29.7,30.23,East,94,0.0,3.0,100,0.00,,,0.00,Wunderground v.1.15,2013-12-15 09:00:00,
2013-12-15 01:10:00,29.4,29.4,30.23,East,94,0.0,3.0,100,0.00,,,0.00,Wunderground v.1.15,2013-12-15 09:10:00,
2013-12-15 01:20:00,29.3,29.3,30.23,East,94,0.0,3.0,100,0.00,,,0.00,Wunderground v.1.15,2013-12-15 09:20:00,
2013-12-15 01:30:00,28.8,28.8,30.22,East,94,0.0,3.0,100,0.00,,,0.00,Wunderground v.1.15,2013-12-15 09:30:00,
2013-12-15 01:40:00,29.0,29.0,30.22,East,94,0.0,3.0,100,0.00,,,0.00,Wunderground v.1.15,2013-12-15 09:40:00,
2013-12-15 01:50:00,29.0,29.0,30.22,East,94,0.0,3.0,100,0.00,,,0.00,Wunderground v.1.15,2013-12-15 09:50:00,
2013-12-15 02:00:00,28.8,28.8,30.21,East,94,0.0,3.0,100,0.00,,,0.00,Wunderground v.1.15,2013-12-15 10:00:00,
2013-12-15 02:10:00,28.8,28.8,30.21,East,94,0.0,3.0,100,0.00,,,0.00,Wunderground v.1.15,2013-12-15 10:10:00,
2013-12-15 02:20:00,28.8,28.8,30.21,East,94,0.0,3.0,100,0.00,,,0.00,Wunderground v.1.15,2013-12-15 10:20:00,
2013-12-15 02:30:00,28.5,28.5,30.21,East,98,0.0,3.0,100,0.00,,,0.00,Wunderground v.1.15,2013-12-15 10:30:00,
2013-12-15 02:40:00,28.2,28.2,30.21,East,98,0.0,3.0,100,0.00,,,0.00,Wunderground v.1.15,2013-12-15 10:40:00,
2013-12-15 02:50:00,28.2,28.2,30.21,East,96,0.0,3.0,100,0.00,,,0.00,Wunderground v.1.15,2013-12-15 10:50:00,
2013-12-15 03:00:00,28.7,28.7,30.21,East,96,1.0,1.0,100,0.00,,,0.00,Wunderground v.1.15,2013-12-15 11:00:00,
2013-12-15 03:10:00,28.5,28.5,30.21,East,96,0.0,3.0,100,0.00,,,0.00,Wunderground v.1.15,2013-12-15 11:10:00,
2013-12-15 03:20:00,28.1,28.1,30.21,East,98,0.0,3.0,100,0.00,,,0.00,Wunderground v.1.15,2013-12-15 11:20:00,
2013-12-15 03:30:00,27.9,27.9,30.21,East,98,0.0,3.0,100,0.00,,,0.00,Wunderground v.1.15,2013-12-15 11:30:00,
2013-12-15 03:40:00,28.1,28.1,30.21,East,97,0.0,3.0,100,0.00,,,0.00,Wunderground v.1.15,2013-12-15 11:40:00,
2013-12-15 03:50:00,28.1,28.1,30.21,East,97,0.0,3.0,100,0.00,,,0.00,Wunderground v.1.15,2013-12-15 11:50:00,
2013-12-15 04:00:00,28.1,28.1,30.21,East,97,0.0,3.0,100,0.00,,,0.00,Wunderground v.1.15,2013-12-15 12:00:00,
2013-12-15 04:10:00,28.2,28.2,30.20,East,97,0.0,3.0,100,0.00,,,0.00,Wunderground v.1.15,2013-12-15 12:10:00,
2013-12-15 04:20:00,28.2,28.2,30.20,East,96,0.0,3.0,100,0.00,,,0.00,Wunderground v.1.15,2013-12-15 12:20:00,
2013-12-15 04:30:00,28.1,28.1,30.20,East,97,0.0,3.0,100,0.00,,,0.00,Wunderground v.1.15,2013-12-15 12:30:00,
2013-12-15 04:40:00,27.8,27.8,30.20,East,97,0.0,3.0,100,0.00,,,0.00,Wunderground v.1.15,2013-12-15 12:40:00,
2013-12-15 04:50:00,28.1,28.1,30.20,East,96,0.0,3.0,100,0.00,,,0.00,Wunderground v.1.15,2013-12-15 12:50:00,
2013-12-15 05:00:00,28.2,28.2,30.20,East,98,0.0,3.0,100,0.00,,,0.00,Wunderground v.1.15,2013-12-15 13:00:00,
2013-12-15 05:10:00,28.2,28.2,30.20,East,98,0.0,3.0,100,0.00,,,0.00,Wunderground v.1.15,2013-12-15 13:10:00,
2013-12-15 05:20:00,28.2,28.2,30.20,East,98,0.0,3.0,100,0.00,,,0.00,Wunderground v.1.15,2013-12-15 13:20:00,
2013-12-15 05:30:00,28.1,28.1,30.20,East,98,0.0,3.0,100,0.00,,,0.00,Wunderground v.1.15,2013-12-15 13:30:00,
2013-12-15 05:40:00,28.5,28.5,30.20,East,98,0.0,3.0,100,0.00,,,0.00,Wunderground v.1.15,2013-12-15 13:40:00,
2013-12-15 05:50:00,28.7,28.7,30.20,East,98,0.0,3.0,100,0.00,,,0.00,Wunderground v.1.15,2013-12-15 13:50:00,
2013-12-15 06:00:00,29.0,29.0,30.20,East,98,0.0,3.0,100,0.00,,,0.00,Wunderground v.1.15,2013-12-15 14:00:00,
2013-12-15 06:10:00,28.8,28.8,30.19,East,98,0.0,3.0,100,0.00,,,0.00,Wunderground v.1.15,2013-12-15 14:10:00,
2013-12-15 06:20:00,28.8,28.8,30.19,East,98,0.0,3.0,100,0.00,,,0.00,Wunderground v.1.15,2013-12-15 14:20:00,
2013-12-15 06:30:00,30.0,30.0,30.19,East,94,1.0,1.0,100,0.00,,,0.00,Wunderground v.1.15,2013-12-15 14:30:00,
2013-12-15 06:40:00,29.4,29.4,30.20,East,95,0.0,3.0,100,0.00,,,0.00,Wunderground v.1.15,2013-12-15 14:40:00,
2013-12-15 06:50:00,29.5,29.5,30.20,ESE,111,0.0,3.0,100,0.00,,,0.00,Wunderground v.1.15,2013-12-15 14:50:00,
2013-12-15 07:00:00,29.4,29.4,30.20,ESE,110,0.0,3.0,100,0.00,,,0.00,Wunderground v.1.15,2013-12-15 15:00:00,
2013-12-15 07:10:00,29.5,29.5,30.20,ESE,110,0.0,3.0,100,0.00,,,0.00,Wunderground v.1.15,2013-12-15 15:10:00,
2013-12-15 07:20:00,30.1,30.1,30.20,ESE,110,0.0,3.0,100,0.00,,,0.00,Wunderground v.1.15,2013-12-15 15:20:00,
2013-12-15 07:30:00,30.0,30.0,30.20,ESE,110,0.0,3.0,100,0.00,,,0.00,Wunderground v.1.15,2013-12-15 15:30:00,
2013-12-15 07:40:00,29.5,29.5,30.20,ESE,110,0.0,3.0,100,0.00,,,0.00,Wunderground v.1.15,2013-12-15 15:40:00,
2013-12-15 07:50:00,29.7,29.7,30.20,ESE,110,0.0,3.0,100,0.00,,,0.00,Wunderground v.1.15,2013-12-15 15:50:00,
2013-12-15 08:00:00,29.8,29.8,30.20,SE,129,0.0,3.0,100,0.00,,,0.00,Wunderground v.1.15,2013-12-15 16:00:00,
2013-12-15 08:10:00,30.4,30.4,30.20,SE,128,0.0,3.0,100,0.00,,,0.00,Wunderground v.1.15,2013-12-15 16:10:00,
2013-12-15 08:20:00,31.5,31.5,30.20,SE,129,0.0,3.0,100,0.00,,,0.00,Wunderground v.1.15,2013-12-15 16:20:00,
2013-12-15 08:30:00,33.1,33.1,30.20,SE,129,0.0,3.0,100,0.00,,,0.00,Wunderground v.1.15,2013-12-15 16:30:00,
2013-12-15 08:40:00,34.4,34.4,30.21,SE,128,0.0,3.0,100,0.00,,,0.00,Wunderground v.1.15,2013-12-15 16:40:00,
2013-12-15 08:50:00,36.3,36.3,30.21,SE,127,0.0,3.0,100,0.00,,,0.00,Wunderground v.1.15,2013-12-15 16:50:00,
2013-12-15 09:00:00,38.3,38.3,30.21,ESE,108,0.0,3.0,100,0.00,,,0.00,Wunderground v.1.15,2013-12-15 17:00:00,
2013-12-15 09:10:00,40.8,40.8,30.21,ESE,108,0.0,3.0,100,0.00,,,0.00,Wunderground v.1.15,2013-12-15 17:10:00,
2013-12-15 09:20:00,42.3,42.3,30.21,ESE,108,0.0,3.0,100,0.00,,,0.00,Wunderground v.1.15,2013-12-15 17:20:00,
2013-12-15 09:30:00,45.1,45.1,30.21,SE,130,0.0,3.0,100,0.00,,,0.00,Wunderground v.1.15,2013-12-15 17:30:00,
2013-12-15 09:40:00,46.8,46.8,30.22,SE,128,0.0,3.0,100,0.00,,,0.00,Wunderground v.1.15,2013-12-15 17:40:00,
2013-12-15 09:50:00,48.2,48.2,30.22,East,100,0.0,3.0,100,0.00,,,0.00,Wunderground v.1.15,2013-12-15 17:50:00,
2013-12-15 10:00:00,50.5,50.5,30.21,East,100,0.0,3.0,100,0.00,,,0.00,Wunderground v.1.15,2013-12-15 18:00:00,
2013-12-15 10:10:00,51.0,51.0,30.21,NE,35,0.0,4.0,100,0.00,,,0.00,Wunderground v.1.15,2013-12-15 18:10:00,
2013-12-15 10:20:00,51.4,51.4,30.21,NE,47,2.0,2.0,100,0.00,,,0.00,Wunderground v.1.15,2013-12-15 18:20:00,
2013-12-15 10:30:00,53.3,51.9,30.21,NE,42,1.0,3.0,95,0.00,,,0.00,Wunderground v.1.15,2013-12-15 18:30:00,
2013-12-15 10:40:00,55.4,51.3,30.21,NE,48,1.0,3.0,86,0.00,,,0.00,Wunderground v.1.15,2013-12-15 18:40:00,
2013-12-15 10:50:00,57.2,51.4,30.21,ESE,109,5.0,5.0,81,0.00,,,0.00,Wunderground v.1.15,2013-12-15 18:50:00,
2013-12-15 11:00:00,58.4,51.9,30.20,ESE,114,3.0,3.0,79,0.00,,,0.00,Wunderground v.1.15,2013-12-15 19:00:00,
2013-12-15 11:10:00,59.2,52.7,30.20,ENE,66,2.0,3.0,79,0.00,,,0.00,Wunderground v.1.15,2013-12-15 19:10:00,
2013-12-15 11:20:00,59.9,53.0,30.20,ESE,109,2.0,2.0,78,0.00,,,0.00,Wunderground v.1.15,2013-12-15 19:20:00,
2013-12-15 11:30:00,60.1,53.2,30.19,NE,42,2.0,3.0,78,0.00,,,0.00,Wunderground v.1.15,2013-12-15 19:30:00,
2013-12-15 11:40:00,59.2,52.3,30.18,NE,34,4.0,4.0,78,0.00,,,0.00,Wunderground v.1.15,2013-12-15 19:40:00,
2013-12-15 11:50:00,60.4,53.5,30.18,ENE,65,2.0,2.0,78,0.00,,,0.00,Wunderground v.1.15,2013-12-15 19:50:00,
2013-12-15 12:00:00,60.7,53.4,30.18,NNE,21,2.0,4.0,77,0.00,,,0.00,Wunderground v.1.15,2013-12-15 20:00:00,
2013-12-15 12:10:00,62.1,54.8,30.17,SE,130,1.0,3.0,77,0.00,,,0.00,Wunderground v.1.15,2013-12-15 20:10:00,
2013-12-15 12:20:00,63.4,56.1,30.17,South,173,1.0,3.0,77,0.00,,,0.00,Wunderground v.1.15,2013-12-15 20:20:00,
2013-12-15 12:30:00,63.9,56.5,30.17,ESE,106,1.0,1.0,77,0.00,,,0.00,Wunderground v.1.15,2013-12-15 20:30:00,
2013-12-15 12:40:00,63.9,55.4,30.16,ENE,76,1.0,3.0,74,0.00,,,0.00,Wunderground v.1.15,2013-12-15 20:40:00,
2013-12-15 12:50:00,64.2,55.7,30.16,East,88,2.0,3.0,74,0.00,,,0.00,Wunderground v.1.15,2013-12-15 20:50:00,
2013-12-15 13:00:00,63.7,54.5,30.15,NE,40,5.0,5.0,72,0.00,,,0.00,Wunderground v.1.15,2013-12-15 21:00:00,
2013-12-15 13:10:00,63.9,54.3,30.15,NE,39,4.0,6.0,71,0.00,,,0.00,Wunderground v.1.15,2013-12-15 21:10:00,
2013-12-15 13:20:00,64.2,54.6,30.15,NE,37,5.0,10.0,71,0.00,,,0.00,Wunderground v.1.15,2013-12-15 21:20:00,
2013-12-15 13:30:00,65.3,56.0,30.14,SE,135,2.0,3.0,72,0.00,,,0.00,Wunderground v.1.15,2013-12-15 21:30:00,
2013-12-15 13:40:00,65.6,56.3,30.13,ESE,109,2.0,2.0,72,0.00,,,0.00,Wunderground v.1.15,2013-12-15 21:40:00,
2013-12-15 13:50:00,66.0,56.7,30.13,ESE,105,1.0,1.0,72,0.00,,,0.00,Wunderground v.1.15,2013-12-15 21:50:00,
2013-12-15 14:00:00,66.8,58.2,30.13,South,184,1.0,3.0,74,0.00,,,0.00,Wunderground v.1.15,2013-12-15 22:00:00,
2013-12-15 14:10:00,67.3,58.7,30.12,SSW,201,1.0,1.0,74,0.00,,,0.00,Wunderground v.1.15,2013-12-15 22:10:00,
2013-12-15 14:20:00,67.1,58.5,30.12,South,182,1.0,1.0,74,0.00,,,0.00,Wunderground v.1.15,2013-12-15 22:20:00,
2013-12-15 14:30:00,67.3,58.3,30.12,ESE,111,0.0,3.0,73,0.00,,,0.00,Wunderground v.1.15,2013-12-15 22:30:00,
2013-12-15 14:40:00,66.4,57.5,30.12,ESE,105,0.0,3.0,73,0.00,,,0.00,Wunderground v.1.15,2013-12-15 22:40:00,
2013-12-15 14:50:00,66.4,57.1,30.12,ENE,76,1.0,1.0,72,0.00,,,0.00,Wunderground v.1.15,2013-12-15 22:50:00,
2013-12-15 15:00:00,65.5,57.0,30.12,NE,46,2.0,4.0,74,0.00,,,0.00,Wunderground v.1.15,2013-12-15 23:00:00,
2013-12-15 15:10:00,64.5,56.4,30.12,ENE,73,2.0,3.0,75,0.00,,,0.00,Wunderground v.1.15,2013-12-15 23:10:00,
2013-12-15 15:20:00,64.2,55.0,30.12,SE,124,3.0,3.0,72,0.00,,,0.00,Wunderground v.1.15,2013-12-15 23:20:00,
2013-12-15 15:30:00,64.8,56.3,30.12,SE,142,0.0,4.0,74,0.00,,,0.00,Wunderground v.1.15,2013-12-15 23:30:00,
2013-12-15 15:40:00,64.0,55.2,30.11,East,90,2.0,2.0,73,0.00,,,0.00,Wunderground v.1.15,2013-12-15 23:40:00,
2013-12-15 15:50:00,63.5,54.7,30.11,East,95,0.0,3.0,73,0.00,,,0.00,Wunderground v.1.15,2013-12-15 23:50:00,
2013-12-15 16:00:00,63.5,55.1,30.11,SSE,160,0.0,3.0,74,0.00,,,0.00,Wunderground v.1.15,2013-12-16 00:00:00,
2013-12-15 16:10:00,62.3,55.0,30.11,SSE,160,0.0,3.0,77,0.00,,,0.00,Wunderground v.1.15,2013-12-16 00:10:00,
2013-12-15 16:20:00,61.3,54.0,30.11,SSE,160,0.0,3.0,77,0.00,,,0.00,Wunderground v.1.15,2013-12-16 00:20:00,
2013-12-15 16:30:00,59.3,52.8,30.11,SSE,160,0.0,3.0,79,0.00,,,0.00,Wunderground v.1.15,2013-12-16 00:30:00,
2013-12-15 16:40:00,56.2,50.4,30.12,NE,34,0.0,3.0,81,0.00,,,0.00,Wunderground v.1.15,2013-12-16 00:40:00,
2013-12-15 16:50:00,53.8,48.1,30.12,NE,34,0.0,3.0,81,0.00,,,0.00,Wunderground v.1.15,2013-12-16 00:50:00,
2013-12-15 17:00:00,51.9,46.9,30.11,NE,34,0.0,3.0,83,0.00,,,0.00,Wunderground v.1.15,2013-12-16 01:00:00,
2013-12-15 17:10:00,50.4,45.7,30.12,NE,34,0.0,3.0,84,0.00,,,0.00,Wunderground v.1.15,2013-12-16 01:10:00,
2013-12-15 17:20:00,49.2,44.9,30.12,NE,34,0.0,3.0,85,0.00,,,0.00,Wunderground v.1.15,2013-12-16 01:20:00,
2013-12-15 17:30:00,48.2,44.5,30.12,NE,34,0.0,3.0,87,0.00,,,0.00,Wunderground v.1.15,2013-12-16 01:30:00,
2013-12-15 17:40:00,47.4,44.0,30.12,NE,34,0.0,3.0,88,0.00,,,0.00,Wunderground v.1.15,2013-12-16 01:40:00,
2013-12-15 17:50:00,46.7,43.9,30.12,NE,34,0.0,3.0,90,0.00,,,0.00,Wunderground v.1.15,2013-12-16 01:50:00,
2013-12-15 18:00:00,44.6,41.8,30.12,NE,34,0.0,3.0,90,0.00,,,0.00,Wunderground v.1.15,2013-12-16 02:00:00,
2013-12-15 18:10:00,43.9,41.2,30.12,NE,34,0.0,3.0,90,0.00,,,0.00,Wunderground v.1.15,2013-12-16 02:10:00,
2013-12-15 18:20:00,42.5,40.1,30.12,NE,34,0.0,3.0,91,0.00,,,0.00,Wunderground v.1.15,2013-12-16 02:20:00,
2013-12-15 18:30:00,42.6,40.7,30.12,NE,34,0.0,3.0,93,0.00,,,0.00,Wunderground v.1.15,2013-12-16 02:30:00,
2013-12-15 18:40:00,42.2,40.0,30.12,NE,34,0.0,3.0,92,0.00,,,0.00,Wunderground v.1.15,2013-12-16 02:40:00,
2013-12-15 18:50:00,41.5,39.6,30.12,NE,34,0.0,3.0,93,0.00,,,0.00,Wunderground v.1.15,2013-12-16 02:50:00,
2013-12-15 19:00:00,40.9,39.0,30.12,NE,34,0.0,3.0,93,0.00,,,0.00,Wunderground v.1.15,2013-12-16 03:00:00,
2013-12-15 19:10:00,39.6,37.7,30.13,NE,34,0.0,3.0,93,0.00,,,0.00,Wunderground v.1.15,2013-12-16 03:10:00,
2013-12-15 19:20:00,39.2,37.6,30.13,NE,34,0.0,3.0,94,0.00,,,0.00,Wunderground v.1.15,2013-12-16 03:20:00,
2013-12-15 19:30:00,38.8,37.5,30.13,NE,34,0.0,3.0,95,0.00,,,0.00,Wunderground v.1.15,2013-12-16 03:30:00,
2013-12-15 19:40:00,38.6,37.6,30.13,NE,34,0.0,3.0,96,0.00,,,0.00,Wunderground v.1.15,2013-12-16 03:40:00,
2013-12-15 19:50:00,37.8,36.8,30.13,NE,34,0.0,3.0,96,0.00,,,0.00,Wunderground v.1.15,2013-12-16 03:50:00,
2013-12-15 20:00:00,37.6,36.8,30.13,NE,34,0.0,3.0,97,0.00,,,0.00,Wunderground v.1.15,2013-12-16 04:00:00,
2013-12-15 20:10:00,37.3,36.8,30.13,NNE,26,1.0,3.0,98,0.00,,,0.00,Wunderground v.1.15,2013-12-16 04:10:00,
2013-12-15 20:20:00,37.2,36.9,30.13,NNE,26,1.0,1.0,99,0.00,,,0.00,Wunderground v.1.15,2013-12-16 04:20:00,
2013-12-15 20:30:00,36.8,36.8,30.13,NNE,26,0.0,3.0,100,0.00,,,0.00,Wunderground v.1.15,2013-12-16 04:30:00,
2013-12-15 20:40:00,36.5,36.5,30.13,NNE,26,0.0,3.0,100,0.00,,,0.00,Wunderground v.1.15,2013-12-16 04:40:00,
2013-12-15 20:50:00,35.9,35.9,30.13,NNE,26,0.0,3.0,100,0.00,,,0.00,Wunderground v.1.15,2013-12-16 04:50:00,
2013-12-15 21:00:00,35.3,35.3,30.12,NNE,26,0.0,3.0,100,0.00,,,0.00,Wunderground v.1.15,2013-12-16 05:00:00,
2013-12-15 21:10:00,34.9,34.9,30.12,NNE,26,0.0,3.0,100,0.00,,,0.00,Wunderground v.1.15,2013-12-16 05:10:00,
2013-12-15 21:20:00,34.7,34.7,30.12,NNE,26,0.0,3.0,100,0.00,,,0.00,Wunderground v.1.15,2013-12-16 05:20:00,
2013-12-15 21:30:00,34.6,34.6,30.13,NNE,26,0.0,3.0,100,0.00,,,0.00,Wunderground v.1.15,2013-12-16 05:30:00,
2013-12-15 21:40:00,34.3,34.3,30.13,NNE,26,0.0,3.0,100,0.00,,,0.00,Wunderground v.1.15,2013-12-16 05:40:00,
2013-12-15 21:50:00,34.0,34.0,30.13,NNE,26,0.0,3.0,100,0.00,,,0.00,Wunderground v.1.15,2013-12-16 05:50:00,
2013-12-15 22:00:00,34.0,34.0,30.13,NNE,26,0.0,3.0,100,0.00,,,0.00,Wunderground v.1.15,2013-12-16 06:00:00,
2013-12-15 22:10:00,34.4,34.4,30.13,NNE,26,1.0,1.0,100,0.00,,,0.00,Wunderground v.1.15,2013-12-16 06:10:00,
2013-12-15 22:20:00,33.4,33.4,30.13,NNE,26,0.0,3.0,100,0.00,,,0.00,Wunderground v.1.15,2013-12-16 06:20:00,
2013-12-15 22:30:00,33.1,33.1,30.13,NE,40,0.0,3.0,100,0.00,,,0.00,Wunderground v.1.15,2013-12-16 06:30:00,
2013-12-15 22:40:00,33.7,33.7,30.13,NE,34,1.0,1.0,100,0.00,,,0.00,Wunderground v.1.15,2013-12-16 06:40:00,
2013-12-15 22:50:00,33.2,33.2,30.13,NE,34,0.0,3.0,100,0.00,,,0.00,Wunderground v.1.15,2013-12-16 06:50:00,
2013-12-15 23:00:00,32.7,32.7,30.13,NNE,32,0.0,3.0,100,0.00,,,0.00,Wunderground v.1.15,2013-12-16 07:00:00,
2013-12-15 23:10:00,33.5,33.5,30.12,NNE,33,0.0,3.0,100,0.00,,,0.00,Wunderground v.1.15,2013-12-16 07:10:00,
2013-12-15 23:20:00,33.4,33.4,30.12,NNE,33,0.0,3.0,100,0.00,,,0.00,Wunderground v.1.15,2013-12-16 07:20:00,
2013-12-15 23:30:00,32.9,32.9,30.12,NNE,33,0.0,3.0,100,0.00,,,0.00,Wunderground v.1.15,2013-12-16 07:30:00,
2013-12-15 23:40:00,32.8,32.8,30.12,NNE,33,0.0,3.0,100,0.00,,,0.00,Wunderground v.1.15,2013-12-16 07:40:00,
2013-12-15 23:50:00,33.5,33.5,30.12,NE,34,0.0,3.0,100,0.00,,,0.00,Wunderground v.1.15,2013-12-16 07:50:00,